Time;durP1;ratioP1;P1;durP2;ratioP2;P2;SDS_P1;SDS_P2;PMS_P1;PMS_P2;Temp;Humidity;BMP_temperature;BMP_pressure;BME280_temperature;BME280_humidity;BME280_pressure;Samples;Min_cycle;Max_cycle;Signal;HPM_P1;HPM_P2
2023/04/14 00:00:02;;;;;;;;;;;8.40;82.30;;;-151.14;100.00;62537.16;5013384;28;20213;-86
2023/04/14 00:02:40;;;;;;;;;;;8.40;82.20;;;-151.14;100.00;62537.16;5029644;28;20209;-86
2023/04/14 00:05:10;;;;;;;;;;;8.40;82.30;;;-151.14;100.00;62537.16;5012684;28;19921;-86
2023/04/14 00:07:38;;;;;;;;;;;8.40;82.30;;;-151.14;100.00;62537.16;5013445;28;19921;-86
2023/04/14 00:10:07;;;;;;;;;;;8.40;82.20;;;-151.14;100.00;62537.16;5014243;28;20226;-86
2023/04/14 00:12:35;;;;;;;;;;;8.40;82.30;;;-151.14;100.00;62537.16;5016752;28;20128;-86
2023/04/14 00:15:04;;;;;;;;;;;8.40;82.30;;;-151.14;100.00;62537.16;5016139;28;19929;-85
2023/04/14 00:17:32;;;;;;;;;;;8.40;82.20;;;-151.14;100.00;62537.16;5016477;28;20203;-86
2023/04/14 00:20:00;;;;;;;;;;;8.40;82.30;;;-151.14;100.00;62537.16;5016649;28;19921;-86
2023/04/14 00:22:29;;;;;;;;;;;8.40;82.20;;;-151.14;100.00;62537.16;5016479;28;19921;-86
2023/04/14 00:24:57;;;;;;;;;;;8.40;82.30;;;-151.14;100.00;62537.16;5015923;28;19921;-86
2023/04/14 00:27:25;;;;;;;;;;;8.40;82.20;;;-151.14;100.00;62537.16;5032961;28;19927;-86
2023/04/14 00:29:53;;;;;;;;;;;8.40;82.20;;;-151.14;100.00;62537.16;5016415;28;20212;-86
2023/04/14 00:32:21;;;;;;;;;;;8.40;82.20;;;-151.14;100.00;62537.16;5016468;28;19921;-86
2023/04/14 00:34:49;;;;;;;;;;;8.40;82.00;;;-151.14;100.00;62537.16;5032177;28;20121;-86
2023/04/14 00:37:18;;;;;;;;;;;8.40;82.00;;;-151.14;100.00;62537.16;5016594;28;19921;-85
2023/04/14 00:39:47;;;;;;;;;;;8.40;82.10;;;-151.14;100.00;62537.16;5016373;28;20209;-86
2023/04/14 00:42:15;;;;;;;;;;;8.40;82.10;;;-151.14;100.00;62537.16;5016138;28;19921;-85
2023/04/14 00:44:43;;;;;;;;;;;8.40;82.10;;;-151.14;100.00;62537.16;5031979;28;19928;-86
2023/04/14 00:47:11;;;;;;;;;;;8.40;82.10;;;-151.14;100.00;62537.16;5016382;28;20116;-86
2023/04/14 00:49:39;;;;;;;;;;;8.40;82.90;;;-151.14;100.00;62537.16;5015988;28;19921;-86
2023/04/14 00:52:08;;;;;;;;;;;8.40;82.20;;;-151.14;100.00;62537.16;5016119;28;19921;-86
2023/04/14 00:54:36;;;;;;;;;;;8.40;82.20;;;-151.14;100.00;62537.16;5031915;28;19928;-86
2023/04/14 00:57:06;;;;;;;;;;;8.40;82.20;;;-151.14;100.00;62537.16;5016333;28;20243;-85
2023/04/14 00:59:34;;;;;;;;;;;8.40;82.30;;;-151.14;100.00;62537.16;5015792;28;19922;-86
2023/04/14 01:02:02;;;;;;;;;;;8.40;82.30;;;-151.14;100.00;62537.16;5033478;28;20124;-86
2023/04/14 01:04:30;;;;;;;;;;;8.40;82.20;;;-151.14;100.00;62537.16;5015358;28;19921;-86
2023/04/14 01:06:58;;;;;;;;;;;8.40;82.20;;;-151.14;100.00;62537.16;5032206;28;19921;-85
2023/04/14 01:09:27;;;;;;;;;;;8.40;82.30;;;-151.14;100.00;62537.16;5015831;28;19923;-86
2023/04/14 01:12:01;;;;;;;;;;;8.40;82.30;;;-151.14;100.00;62537.16;5015633;28;19931;-85
2023/04/14 01:14:35;;;;;;;;;;;8.40;82.30;;;-151.14;100.00;62537.16;5015206;28;20213;-86
2023/04/14 01:17:07;;;;;;;;;;;8.40;82.20;;;-151.14;100.00;62537.16;5032140;28;20116;-85
2023/04/14 01:19:56;;;;;;;;;;;8.40;82.20;;;-151.14;100.00;62537.16;5032234;28;19921;-86
2023/04/14 01:22:25;;;;;;;;;;;8.40;82.20;;;-151.14;100.00;62537.16;5031464;28;20204;-86
2023/04/14 01:25:20;;;;;;;;;;;8.40;82.20;;;-151.14;100.00;62537.16;5015168;28;19929;-86
2023/04/14 01:27:53;;;;;;;;;;;8.40;82.20;;;-151.14;100.00;62537.16;5032330;28;20112;-85
2023/04/14 01:30:44;;;;;;;;;;;8.40;82.20;;;-151.14;100.00;62537.16;5015624;28;19928;-86
2023/04/14 01:33:16;;;;;;;;;;;8.40;82.10;;;-151.14;100.00;62537.16;5015374;28;19921;-85
2023/04/14 01:35:46;;;;;;;;;;;8.40;82.20;;;-151.14;100.00;62537.16;5014848;28;19921;-85
2023/04/14 01:38:20;;;;;;;;;;;8.40;82.10;;;-151.14;100.00;62537.16;5015449;28;19921;-85
2023/04/14 01:40:51;;;;;;;;;;;8.40;82.00;;;-151.14;100.00;62537.16;5017476;28;20116;-85
2023/04/14 01:43:22;;;;;;;;;;;8.40;82.00;;;-151.14;100.00;62537.16;5023059;28;20227;-86
2023/04/14 01:45:52;;;;;;;;;;;8.40;82.10;;;-151.14;100.00;62537.16;4995028;28;19921;-86
2023/04/14 01:48:22;;;;;;;;;;;8.40;82.10;;;-151.14;100.00;62537.16;5012192;28;19922;-86
2023/04/14 01:50:50;;;;;;;;;;;8.40;82.10;;;-151.14;100.00;62537.16;4995975;28;20125;-86
2023/04/14 01:53:18;;;;;;;;;;;8.40;82.20;;;-151.14;100.00;62537.16;4995770;28;19922;-86
2023/04/14 01:55:47;;;;;;;;;;;8.40;82.20;;;-151.14;100.00;62537.16;4995132;28;19926;-85
2023/04/14 01:58:15;;;;;;;;;;;8.40;82.20;;;-151.14;100.00;62537.16;4995674;28;19928;-86
2023/04/14 02:00:43;;;;;;;;;;;8.40;82.20;;;-151.14;100.00;62537.16;5011959;28;19922;-86
2023/04/14 02:03:11;;;;;;;;;;;8.40;82.30;;;-151.14;100.00;62537.16;5019431;28;19928;-86
2023/04/14 02:05:41;;;;;;;;;;;8.40;82.30;;;-151.14;100.00;62537.16;5014512;28;19927;-85
2023/04/14 02:08:11;;;;;;;;;;;8.40;82.20;;;-151.14;100.00;62537.16;5031499;28;19921;-85
2023/04/14 02:10:46;;;;;;;;;;;8.40;82.10;;;-151.14;100.00;62537.16;5014925;28;19927;-85
2023/04/14 02:13:14;;;;;;;;;;;8.40;82.20;;;-151.14;100.00;62537.16;5015096;28;19927;-85
2023/04/14 02:15:42;;;;;;;;;;;8.40;82.30;;;-151.14;100.00;62537.16;5014310;28;19921;-85
2023/04/14 02:18:10;;;;;;;;;;;8.40;82.30;;;-151.14;100.00;62537.16;5031247;28;19921;-85
2023/04/14 02:20:43;;;;;;;;;;;8.40;82.40;;;-151.14;100.00;62537.16;5014889;28;20120;-85
2023/04/14 02:23:12;;;;;;;;;;;8.40;82.30;;;-151.14;100.00;62537.16;5031108;28;19921;-85
2023/04/14 02:25:41;;;;;;;;;;;8.40;82.30;;;-151.14;100.00;62537.16;5014358;28;19925;-86
2023/04/14 02:28:12;;;;;;;;;;;8.40;82.20;;;-151.14;100.00;62537.16;5014657;28;20209;-85
2023/04/14 02:30:41;;;;;;;;;;;8.40;82.20;;;-151.14;100.00;62537.16;5014737;28;20336;-85
2023/04/14 02:33:15;;;;;;;;;;;8.40;82.20;;;-151.14;100.00;62537.16;5046870;28;19937;-85
2023/04/14 02:35:47;;;;;;;;;;;8.40;82.30;;;-151.14;100.00;62537.16;5013936;28;20246;-86
2023/04/14 02:38:18;;;;;;;;;;;8.30;82.30;;;-151.14;100.00;62537.16;5014720;28;20120;-85
2023/04/14 02:40:47;;;;;;;;;;;8.40;82.30;;;-151.14;100.00;62537.16;5029904;28;19921;-85
2023/04/14 02:43:18;;;;;;;;;;;8.40;82.40;;;-151.14;100.00;62537.16;5045898;23;19921;-86
2023/04/14 02:45:47;;;;;;;;;;;8.40;82.20;;;-151.14;100.00;62537.16;4996918;28;19921;-86
2023/04/14 02:48:16;;;;;;;;;;;8.40;82.20;;;-151.14;100.00;62537.16;4998023;28;20111;-86
2023/04/14 02:50:48;;;;;;;;;;;8.30;82.20;;;-151.14;100.00;62537.16;5014220;28;19927;-86
2023/04/14 02:53:22;;;;;;;;;;;8.30;82.20;;;-151.14;100.00;62537.16;4997927;28;19943;-87
2023/04/14 02:55:54;;;;;;;;;;;8.30;83.00;;;-151.14;100.00;62537.16;5013937;28;19927;-86
2023/04/14 02:58:22;;;;;;;;;;;8.30;82.10;;;-151.14;100.00;62537.16;5030563;28;20230;-87
2023/04/14 03:00:51;;;;;;;;;;;8.30;82.10;;;-151.14;100.00;62537.16;5014108;28;19921;-86
2023/04/14 03:03:19;;;;;;;;;;;8.30;82.10;;;-151.14;100.00;62537.16;5030558;28;19928;-85
2023/04/14 03:05:48;;;;;;;;;;;8.30;82.20;;;-151.14;100.00;62537.16;5013688;28;19927;-86
2023/04/14 03:08:17;;;;;;;;;;;8.30;82.20;;;-151.14;100.00;62537.16;4998001;28;20105;-86
2023/04/14 03:10:48;;;;;;;;;;;8.30;82.00;;;-151.14;100.00;62537.16;4997861;28;19928;-86
2023/04/14 03:13:19;;;;;;;;;;;8.30;82.10;;;-151.14;100.00;62537.16;5013847;28;19921;-86
2023/04/14 03:15:48;;;;;;;;;;;8.30;82.00;;;-151.14;100.00;62537.16;5013563;28;19921;-86
2023/04/14 03:18:17;;;;;;;;;;;8.30;82.20;;;-151.14;100.00;62537.16;4997637;28;19921;-86
2023/04/14 03:20:46;;;;;;;;;;;8.30;82.10;;;-151.14;100.00;62537.16;4997744;28;19921;-85
2023/04/14 03:23:19;;;;;;;;;;;8.30;82.10;;;-151.14;100.00;62537.16;5030501;28;19935;-85
2023/04/14 03:25:53;;;;;;;;;;;8.30;82.00;;;-151.14;100.00;62537.16;5013634;28;19921;-87
2023/04/14 03:28:27;;;;;;;;;;;8.30;82.00;;;-151.14;100.00;62537.16;5014022;28;19943;-86
2023/04/14 03:31:00;;;;;;;;;;;8.30;81.90;;;-151.14;100.00;62537.16;5048983;28;19943;-86
2023/04/14 03:33:34;;;;;;;;;;;8.30;82.00;;;-151.14;100.00;62537.16;5016982;28;20120;-86
2023/04/14 03:36:02;;;;;;;;;;;8.30;82.00;;;-151.14;100.00;62537.16;5016771;28;19936;-86
2023/04/14 03:38:32;;;;;;;;;;;8.30;81.90;;;-151.14;100.00;62537.16;5016893;28;19921;-86
2023/04/14 03:41:04;;;;;;;;;;;8.30;81.90;;;-151.14;100.00;62537.16;5033526;28;19921;-86
2023/04/14 03:43:33;;;;;;;;;;;8.30;81.90;;;-151.14;100.00;62537.16;5033082;28;19921;-85
2023/04/14 03:46:06;;;;;;;;;;;8.30;81.80;;;-151.14;100.00;62537.16;5018903;28;19927;-85
2023/04/14 03:48:34;;;;;;;;;;;8.30;81.80;;;-151.14;100.00;62537.16;5036760;28;19927;-85
2023/04/14 03:51:03;;;;;;;;;;;8.30;81.90;;;-151.14;100.00;62537.16;5020435;28;19921;-86
2023/04/14 03:53:33;;;;;;;;;;;8.30;81.90;;;-151.14;100.00;62537.16;5036721;28;20227;-86
2023/04/14 03:56:01;;;;;;;;;;;8.30;81.80;;;-151.14;100.00;62537.16;5036806;28;19920;-85
2023/04/14 03:58:30;;;;;;;;;;;8.30;81.80;;;-151.14;100.00;62537.16;5036445;28;19935;-86
2023/04/14 04:00:58;;;;;;;;;;;8.30;81.90;;;-151.14;100.00;62537.16;5020316;28;20131;-86
2023/04/14 04:03:26;;;;;;;;;;;8.30;81.70;;;-151.14;100.00;62537.16;5020126;28;19921;-86
2023/04/14 04:05:54;;;;;;;;;;;8.30;81.80;;;-151.14;100.00;62537.16;5019765;28;19921;-87
2023/04/14 04:08:22;;;;;;;;;;;8.30;81.80;;;-151.14;100.00;62537.16;5036288;28;19921;-86
2023/04/14 04:10:52;;;;;;;;;;;8.30;81.80;;;-151.14;100.00;62537.16;5020319;28;19927;-86
2023/04/14 04:13:21;;;;;;;;;;;8.30;81.80;;;-151.14;100.00;62537.16;5036465;28;19928;-86
2023/04/14 04:15:50;;;;;;;;;;;8.30;81.90;;;-151.14;100.00;62537.16;5019619;28;19921;-85
2023/04/14 04:18:18;;;;;;;;;;;8.30;82.00;;;-151.14;100.00;62537.16;5053861;28;19949;-86
2023/04/14 04:20:47;;;;;;;;;;;8.30;81.80;;;-151.14;100.00;62537.16;5036354;28;19921;-86
2023/04/14 04:23:15;;;;;;;;;;;8.30;81.90;;;-151.14;100.00;62537.16;5019762;28;19921;-86
2023/04/14 04:25:43;;;;;;;;;;;8.30;81.70;;;-151.14;100.00;62537.16;5035916;28;20337;-86
2023/04/14 04:28:31;;;;;;;;;;;8.30;81.70;;;-151.14;100.00;62537.16;5036152;28;19927;-86
2023/04/14 04:30:59;;;;;;;;;;;8.30;81.70;;;-151.14;100.00;62537.16;5036093;28;19921;-86
2023/04/14 04:33:28;;;;;;;;;;;8.30;81.70;;;-151.14;100.00;62537.16;5019679;28;19921;-87
2023/04/14 04:35:57;;;;;;;;;;;8.40;81.90;;;-151.14;100.00;62537.16;5052478;28;19927;-87
2023/04/14 04:38:31;;;;;;;;;;;8.40;82.70;;;-151.14;100.00;62537.16;5036233;28;19921;-86
2023/04/14 04:41:00;;;;;;;;;;;8.40;81.70;;;-151.14;100.00;62537.16;5019907;28;20234;-86
2023/04/14 04:43:31;;;;;;;;;;;8.40;81.60;;;-151.14;100.00;62537.16;5035886;28;19927;-86
2023/04/14 04:46:15;;;;;;;;;;;8.40;81.50;;;-151.14;100.00;62537.16;5019352;28;19928;-86
2023/04/14 04:48:43;;;;;;;;;;;8.40;81.70;;;-151.14;100.00;62537.16;5019473;28;19921;-86
2023/04/14 04:51:11;;;;;;;;;;;8.40;81.90;;;-151.14;100.00;62537.16;5019545;28;19920;-86
2023/04/14 04:53:40;;;;;;;;;;;8.50;82.10;;;-151.14;100.00;62537.16;5035624;28;19921;-86
2023/04/14 04:56:09;;;;;;;;;;;8.50;82.30;;;-151.14;100.00;62537.16;5034927;28;19927;-86
2023/04/14 04:58:38;;;;;;;;;;;8.50;82.30;;;-151.14;100.00;62537.16;5051745;28;19928;-86
2023/04/14 05:01:09;;;;;;;;;;;8.60;82.10;;;-151.14;100.00;62537.16;5035719;28;19987;-87
2023/04/14 05:03:37;;;;;;;;;;;8.60;82.00;;;-151.14;100.00;62537.16;5015335;28;19921;-86
2023/04/14 05:06:06;;;;;;;;;;;8.70;81.80;;;-151.14;100.00;62537.16;5015510;28;20212;-87
2023/04/14 05:08:34;;;;;;;;;;;8.90;81.70;;;-151.14;100.00;62537.16;5015746;28;19935;-86
2023/04/14 05:11:02;;;;;;;;;;;9.00;81.00;;;-151.14;100.00;62537.16;4999507;28;19921;-86
2023/04/14 05:13:30;;;;;;;;;;;9.10;80.30;;;-151.14;100.00;62537.16;5015709;28;19927;-86
2023/04/14 05:16:04;;;;;;;;;;;9.30;80.10;;;-151.14;100.00;62537.16;5015491;28;19921;-86
2023/04/14 05:18:32;;;;;;;;;;;9.50;79.20;;;-151.14;100.00;62537.16;5015743;28;19927;-86
2023/04/14 05:21:04;;;;;;;;;;;9.60;78.00;;;-151.14;100.00;62537.16;4999567;28;19921;-85
2023/04/14 05:23:32;;;;;;;;;;;9.60;77.60;;;-151.14;100.00;62537.16;5032011;28;19921;-86
2023/04/14 05:26:00;;;;;;;;;;;9.70;77.80;;;-151.14;100.00;62537.16;5015177;28;19928;-86
2023/04/14 05:28:28;;;;;;;;;;;9.80;77.80;;;-151.14;100.00;62537.16;5015449;28;19936;-86
2023/04/14 05:30:56;;;;;;;;;;;9.90;77.20;;;-151.14;100.00;62537.16;5015605;28;19931;-86
2023/04/14 05:33:26;;;;;;;;;;;10.00;76.50;;;-151.14;100.00;62537.16;5031824;28;19921;-86
2023/04/14 05:35:54;;;;;;;;;;;10.10;76.20;;;-151.14;100.00;62537.16;5015098;28;20212;-86
2023/04/14 05:38:22;;;;;;;;;;;10.10;76.00;;;-151.14;100.00;62537.16;5014960;28;19921;-88
2023/04/14 05:40:50;;;;;;;;;;;10.10;75.80;;;-151.14;100.00;62537.16;5015425;28;19921;-86
2023/04/14 05:43:18;;;;;;;;;;;10.10;75.70;;;-151.14;100.00;62537.16;5015160;28;19921;-86
2023/04/14 05:45:47;;;;;;;;;;;10.00;75.80;;;-151.14;100.00;62537.16;5014904;28;19927;-86
2023/04/14 05:48:15;;;;;;;;;;;9.90;76.20;;;-151.14;100.00;62537.16;4999102;28;19928;-86
2023/04/14 05:50:45;;;;;;;;;;;9.70;76.70;;;-151.14;100.00;62537.16;5015111;28;20133;-86
2023/04/14 05:53:14;;;;;;;;;;;9.60;77.10;;;-151.14;100.00;62537.16;5015196;28;19921;-86
2023/04/14 05:55:42;;;;;;;;;;;9.50;77.60;;;-151.14;100.00;62537.16;5014917;28;19936;-86
2023/04/14 05:58:11;;;;;;;;;;;9.40;78.00;;;-151.14;100.00;62537.16;4998812;28;19927;-86
2023/04/14 06:00:39;;;;;;;;;;;9.30;78.40;;;-151.14;100.00;62537.16;5014944;28;19921;-86
2023/04/14 06:03:07;;;;;;;;;;;9.20;78.80;;;-151.14;100.00;62537.16;5014985;28;19928;-85
2023/04/14 06:05:35;;;;;;;;;;;9.20;79.20;;;-151.14;100.00;62537.16;5014694;28;19921;-85
2023/04/14 06:08:05;;;;;;;;;;;9.10;79.50;;;-151.14;100.00;62537.16;5014848;28;19921;-86
2023/04/14 06:10:34;;;;;;;;;;;9.00;79.70;;;-151.14;100.00;62537.16;5031428;28;19921;-86
2023/04/14 06:13:02;;;;;;;;;;;9.00;80.00;;;-151.14;100.00;62537.16;5025281;28;19921;-85
2023/04/14 06:15:30;;;;;;;;;;;9.00;80.20;;;-151.14;100.00;62537.16;4998195;28;19921;-85
2023/04/14 06:17:58;;;;;;;;;;;8.90;80.50;;;-151.14;100.00;62537.16;5014788;28;19929;-86
2023/04/14 06:20:26;;;;;;;;;;;8.90;80.60;;;-151.14;100.00;62537.16;5015025;28;19930;-85
2023/04/14 06:22:54;;;;;;;;;;;8.90;80.70;;;-151.14;100.00;62537.16;5047737;28;19925;-86
2023/04/14 06:25:26;;;;;;;;;;;8.90;80.80;;;-151.14;100.00;62537.16;5014098;28;20146;-86
2023/04/14 06:27:54;;;;;;;;;;;8.80;81.60;;;-151.14;100.00;62537.16;5014476;28;20212;-86
2023/04/14 06:30:22;;;;;;;;;;;8.80;80.80;;;-151.14;100.00;62537.16;5014538;28;19936;-87
2023/04/14 06:32:52;;;;;;;;;;;8.80;80.80;;;-151.14;100.00;62537.16;5014387;28;19925;-86
2023/04/14 06:35:20;;;;;;;;;;;8.80;80.80;;;-151.14;100.00;62537.16;5013989;28;19922;-86
2023/04/14 06:37:48;;;;;;;;;;;8.80;80.80;;;-151.14;100.00;62537.16;4998196;28;19928;-86
2023/04/14 06:40:17;;;;;;;;;;;8.80;80.80;;;-151.14;100.00;62537.16;5014514;28;19921;-86
2023/04/14 06:42:46;;;;;;;;;;;8.80;81.00;;;-151.14;100.00;62537.16;4998177;28;20219;-86
2023/04/14 06:45:14;;;;;;;;;;;8.80;81.00;;;-151.14;100.00;62537.16;5013787;28;19921;-86
2023/04/14 06:47:42;;;;;;;;;;;8.80;81.10;;;-151.14;100.00;62537.16;4998145;28;20204;-86
2023/04/14 06:50:11;;;;;;;;;;;8.80;81.10;;;-151.14;100.00;62537.16;5030833;28;19947;-85
2023/04/14 06:52:39;;;;;;;;;;;8.80;81.10;;;-151.14;100.00;62537.16;5014363;28;19928;-87
2023/04/14 06:55:07;;;;;;;;;;;8.80;81.10;;;-151.14;100.00;62537.16;5013705;28;19921;-86
2023/04/14 06:57:35;;;;;;;;;;;8.80;81.50;;;-151.14;100.00;62537.16;5001911;28;19921;-86
2023/04/14 07:00:08;;;;;;;;;;;8.80;81.30;;;-151.14;100.00;62537.16;5017514;28;19927;-86
2023/04/14 07:02:36;;;;;;;;;;;8.80;81.30;;;-151.14;100.00;62537.16;5033868;28;20215;-86
2023/04/14 07:05:06;;;;;;;;;;;8.80;81.30;;;-151.14;100.00;62537.16;5033318;28;19927;-86
2023/04/14 07:07:35;;;;;;;;;;;8.80;81.30;;;-151.14;100.00;62537.16;5017418;28;19943;-85
2023/04/14 07:10:03;;;;;;;;;;;8.80;81.20;;;-151.14;100.00;62537.16;5033627;28;20216;-86
2023/04/14 07:12:32;;;;;;;;;;;8.80;81.10;;;-151.14;100.00;62537.16;5017168;28;19925;-85
2023/04/14 07:15:00;;;;;;;;;;;8.80;81.10;;;-151.14;100.00;62537.16;5033325;28;19921;-86
2023/04/14 07:17:30;;;;;;;;;;;8.80;81.10;;;-151.14;100.00;62537.16;5017218;28;20119;-87
2023/04/14 07:19:58;;;;;;;;;;;8.80;81.10;;;-151.14;100.00;62537.16;5050852;28;19920;-87
2023/04/14 07:22:26;;;;;;;;;;;8.80;81.20;;;-151.14;100.00;62537.16;5050440;28;19927;-86
2023/04/14 07:24:54;;;;;;;;;;;8.80;81.10;;;-151.14;100.00;62537.16;5016790;28;19921;-86
2023/04/14 07:27:22;;;;;;;;;;;8.80;81.10;;;-151.14;100.00;62537.16;5033462;28;19921;-86
2023/04/14 07:29:52;;;;;;;;;;;8.80;81.20;;;-151.14;100.00;62537.16;5033518;28;20216;-86
2023/04/14 07:32:20;;;;;;;;;;;8.80;81.20;;;-151.14;100.00;62537.16;5017200;28;19920;-87
2023/04/14 07:34:50;;;;;;;;;;;8.80;81.20;;;-151.14;100.00;62537.16;5050984;28;19921;-86
2023/04/14 07:37:19;;;;;;;;;;;8.80;81.30;;;-151.14;100.00;62537.16;5017128;28;19927;-86
2023/04/14 07:39:47;;;;;;;;;;;8.80;81.20;;;-151.14;100.00;62537.16;5029962;28;19927;-86
2023/04/14 07:42:15;;;;;;;;;;;8.80;81.20;;;-151.14;100.00;62537.16;5016818;28;19921;-86
2023/04/14 07:44:43;;;;;;;;;;;8.80;81.20;;;-151.14;100.00;62537.16;5032937;28;20116;-86
2023/04/14 07:47:11;;;;;;;;;;;8.80;81.20;;;-151.14;100.00;62537.16;5016686;28;19928;-86
2023/04/14 07:49:40;;;;;;;;;;;8.80;81.20;;;-151.14;100.00;62537.16;5033157;28;19927;-86
2023/04/14 07:52:09;;;;;;;;;;;8.80;81.20;;;-151.14;100.00;62537.16;5033247;28;19928;-87
2023/04/14 07:54:37;;;;;;;;;;;8.80;81.30;;;-151.14;100.00;62537.16;5016635;28;19921;-87
2023/04/14 07:57:07;;;;;;;;;;;8.80;81.30;;;-151.14;100.00;62537.16;5016688;28;19927;-86
2023/04/14 07:59:37;;;;;;;;;;;8.80;81.20;;;-151.14;100.00;62537.16;5016837;28;19927;-86
2023/04/14 08:02:05;;;;;;;;;;;8.80;81.30;;;-151.14;100.00;62537.16;5016763;28;19921;-87
2023/04/14 08:04:33;;;;;;;;;;;8.80;81.40;;;-151.14;100.00;62537.16;5032774;28;20124;-87
2023/04/14 08:07:01;;;;;;;;;;;8.90;81.30;;;-151.14;100.00;62537.16;5016627;28;19927;-86
2023/04/14 08:09:31;;;;;;;;;;;9.00;81.20;;;-151.14;100.00;62537.16;5016736;28;19921;-88
2023/04/14 08:11:59;;;;;;;;;;;9.00;80.80;;;-151.14;100.00;62537.16;5016595;28;19921;-86
2023/04/14 08:14:27;;;;;;;;;;;9.10;80.70;;;-151.14;100.00;62537.16;5032805;28;19927;-86
2023/04/14 08:16:55;;;;;;;;;;;9.20;80.60;;;-151.14;100.00;62537.16;5049432;28;19947;-86
2023/04/14 08:19:23;;;;;;;;;;;9.20;80.20;;;-151.14;100.00;62537.16;5050719;28;19921;-86
2023/04/14 08:21:51;;;;;;;;;;;9.30;80.10;;;-151.14;100.00;62537.16;5016382;28;19929;-86
2023/04/14 08:24:19;;;;;;;;;;;9.30;79.90;;;-151.14;100.00;62537.16;5032792;28;19920;-88
2023/04/14 08:26:49;;;;;;;;;;;9.40;79.60;;;-151.14;100.00;62537.16;5016203;28;20238;-86
2023/04/14 08:29:17;;;;;;;;;;;9.40;79.40;;;-151.14;100.00;62537.16;5016577;28;19927;-87
2023/04/14 08:31:45;;;;;;;;;;;9.40;79.30;;;-151.14;100.00;62537.16;5018156;28;19921;-86
2023/04/14 08:34:13;;;;;;;;;;;9.40;79.20;;;-151.14;100.00;62537.16;5019532;28;19921;-86
2023/04/14 08:36:41;;;;;;;;;;;9.40;79.20;;;-151.14;100.00;62537.16;5036047;28;19925;-86
2023/04/14 08:39:09;;;;;;;;;;;9.30;79.20;;;-151.14;100.00;62537.16;5019510;28;19929;-87
2023/04/14 08:41:38;;;;;;;;;;;9.30;79.30;;;-151.14;100.00;62537.16;5019648;28;19927;-86
2023/04/14 08:44:08;;;;;;;;;;;9.30;79.60;;;-151.14;100.00;62537.16;5019155;28;20208;-87
2023/04/14 08:46:36;;;;;;;;;;;9.30;79.60;;;-151.14;100.00;62537.16;5019548;28;19921;-87
2023/04/14 08:49:05;;;;;;;;;;;9.30;79.70;;;-151.14;100.00;62537.16;5052444;28;20127;-88
2023/04/14 08:51:34;;;;;;;;;;;9.20;79.70;;;-151.14;100.00;62537.16;5019518;28;20137;-87
2023/04/14 08:54:03;;;;;;;;;;;9.20;79.80;;;-151.14;100.00;62537.16;5018971;28;19921;-89
2023/04/14 08:56:34;;;;;;;;;;;9.20;79.90;;;-151.14;100.00;62537.16;5035930;28;19921;-88
2023/04/14 08:59:02;;;;;;;;;;;9.20;80.00;;;-151.14;100.00;62537.16;5019340;28;19927;-88
2023/04/14 09:01:32;;;;;;;;;;;9.20;79.90;;;-151.14;100.00;62537.16;5035815;28;20207;-88
2023/04/14 09:04:00;;;;;;;;;;;9.30;79.90;;;-151.14;100.00;62537.16;5035264;28;19927;-88
2023/04/14 09:06:28;;;;;;;;;;;9.30;79.90;;;-151.14;100.00;62537.16;5018925;28;20135;-88
2023/04/14 09:08:56;;;;;;;;;;;9.30;79.90;;;-151.14;100.00;62537.16;5035597;28;19921;-88
2023/04/14 09:11:24;;;;;;;;;;;9.30;79.90;;;-151.14;100.00;62537.16;5019056;28;20216;-87
2023/04/14 09:13:52;;;;;;;;;;;9.30;79.90;;;-151.14;100.00;62537.16;5035780;28;20208;-88
2023/04/14 09:16:20;;;;;;;;;;;9.20;79.90;;;-151.14;100.00;62537.16;5018523;28;20333;-87
2023/04/14 09:18:50;;;;;;;;;;;9.30;80.00;;;-151.14;100.00;62537.16;5019153;28;20243;-87
2023/04/14 09:21:19;;;;;;;;;;;9.30;80.00;;;-151.14;100.00;62537.16;5035447;28;19921;-87
2023/04/14 09:23:47;;;;;;;;;;;9.20;80.00;;;-151.14;100.00;62537.16;5035262;28;19921;-87
2023/04/14 09:26:15;;;;;;;;;;;9.20;80.00;;;-151.14;100.00;62537.16;5034815;28;19928;-87
2023/04/14 09:28:43;;;;;;;;;;;9.20;80.00;;;-151.14;100.00;62537.16;5035273;28;19935;-86
2023/04/14 09:31:11;;;;;;;;;;;9.20;81.00;;;-151.14;100.00;62537.16;5019066;28;19921;-87
2023/04/14 09:33:40;;;;;;;;;;;9.20;80.20;;;-151.14;100.00;62537.16;5035349;28;20119;-87
2023/04/14 09:36:17;;;;;;;;;;;9.20;80.20;;;-151.14;100.00;62537.16;5034806;28;20209;-87
2023/04/14 09:38:45;;;;;;;;;;;9.20;80.30;;;-151.14;100.00;62537.16;5035217;28;19921;-88
2023/04/14 09:41:16;;;;;;;;;;;9.20;80.40;;;-151.14;100.00;62537.16;5035161;28;19921;-87
2023/04/14 09:43:44;;;;;;;;;;;9.20;80.40;;;-151.14;100.00;62537.16;5017918;28;19927;-88
2023/04/14 09:46:14;;;;;;;;;;;9.20;80.40;;;-151.14;100.00;62537.16;5018142;28;20135;-88
2023/04/14 09:48:50;;;;;;;;;;;9.20;80.40;;;-151.14;100.00;62537.16;5031837;28;19929;-88
2023/04/14 09:51:23;;;;;;;;;;;9.20;80.40;;;-151.14;100.00;62537.16;4999074;28;20235;-88
2023/04/14 09:53:52;;;;;;;;;;;9.20;80.40;;;-151.14;100.00;62537.16;4998909;28;19928;-88
2023/04/14 09:56:26;;;;;;;;;;;9.20;80.50;;;-151.14;100.00;62537.16;4998488;28;19928;-89
2023/04/14 09:58:57;;;;;;;;;;;9.10;80.50;;;-151.14;100.00;62537.16;4999010;28;19927;-87
2023/04/14 10:01:28;;;;;;;;;;;9.10;80.50;;;-151.14;100.00;62537.16;5015378;28;19921;-88
2023/04/14 10:03:56;;;;;;;;;;;9.10;80.60;;;-151.14;100.00;62537.16;4998671;28;19928;-87
2023/04/14 10:06:26;;;;;;;;;;;9.10;80.60;;;-151.14;100.00;62537.16;5014605;28;19922;-88
2023/04/14 10:08:55;;;;;;;;;;;9.10;80.70;;;-151.14;100.00;62537.16;4998735;28;20098;-87
2023/04/14 10:11:23;;;;;;;;;;;9.10;80.70;;;-151.14;100.00;62537.16;4998822;28;19927;-88
2023/04/14 10:13:53;;;;;;;;;;;9.10;80.70;;;-151.14;100.00;62537.16;4998739;28;19927;-89
2023/04/14 10:16:21;;;;;;;;;;;9.10;80.70;;;-151.14;100.00;62537.16;5039972;28;20227;-89
2023/04/14 10:18:50;;;;;;;;;;;9.10;80.70;;;-151.14;100.00;62537.16;5018241;28;19921;-88
2023/04/14 10:21:21;;;;;;;;;;;9.10;80.70;;;-151.14;100.00;62537.16;5018298;28;19943;-89
2023/04/14 10:23:51;;;;;;;;;;;9.10;80.70;;;-151.14;100.00;62537.16;5018081;28;19921;-88
2023/04/14 10:26:19;;;;;;;;;;;9.10;80.80;;;-151.14;100.00;62537.16;5017495;28;19927;-89
2023/04/14 10:28:49;;;;;;;;;;;9.10;80.70;;;-151.14;100.00;62537.16;5034189;28;19927;-89
2023/04/14 10:31:19;;;;;;;;;;;9.10;80.70;;;-151.14;100.00;62537.16;5018189;28;20111;-89
2023/04/14 10:33:47;;;;;;;;;;;9.20;80.70;;;-151.14;100.00;62537.16;5017896;28;19922;-87
2023/04/14 10:36:22;;;;;;;;;;;9.10;80.70;;;-151.14;100.00;62537.16;5017385;28;19921;-88
2023/04/14 10:38:58;;;;;;;;;;;9.20;80.70;;;-151.14;100.00;62537.16;5034195;28;19921;-87
2023/04/14 10:41:26;;;;;;;;;;;9.20;80.70;;;-151.14;100.00;62537.16;5018007;28;19928;-88
2023/04/14 10:43:54;;;;;;;;;;;9.20;80.60;;;-151.14;100.00;62537.16;5017587;28;20208;-86
2023/04/14 10:46:23;;;;;;;;;;;9.20;80.70;;;-151.14;100.00;62537.16;5033522;28;19927;-87
2023/04/14 10:48:51;;;;;;;;;;;9.20;80.60;;;-151.14;100.00;62537.16;5017708;28;19921;-88
2023/04/14 10:51:20;;;;;;;;;;;9.20;80.70;;;-151.14;100.00;62537.16;5017565;28;19921;-87
2023/04/14 10:53:49;;;;;;;;;;;9.20;80.50;;;-151.14;100.00;62537.16;5017438;28;19943;-87
2023/04/14 10:56:20;;;;;;;;;;;9.30;80.60;;;-151.14;100.00;62537.16;5016267;28;19935;-88
2023/04/14 10:58:54;;;;;;;;;;;9.30;80.60;;;-151.14;100.00;62537.16;5017603;28;19928;-88
2023/04/14 11:01:25;;;;;;;;;;;9.30;80.50;;;-151.14;100.00;62537.16;5051701;28;19927;-88
2023/04/14 11:03:54;;;;;;;;;;;9.30;80.40;;;-151.14;100.00;62537.16;5033129;28;19924;-88
2023/04/14 11:06:52;;;;;;;;;;;9.30;80.40;;;-151.14;100.00;62537.16;5033171;28;20115;-87
2023/04/14 11:09:24;;;;;;;;;;;9.30;80.30;;;-151.14;100.00;62537.16;5033672;28;20220;-87
2023/04/14 11:11:55;;;;;;;;;;;9.30;80.30;;;-151.14;100.00;62537.16;5033785;28;19928;-88